createdAt,value
2022-09-15T00:01:02.633Z,15.11
2022-09-15T00:03:29.237Z,15.06
2022-09-15T00:05:56.171Z,15.03
2022-09-15T00:08:22.997Z,14.96
2022-09-15T00:10:58.451Z,14.92
2022-09-15T00:13:25.854Z,14.86
2022-09-15T00:15:52.991Z,14.81
2022-09-15T00:18:19.960Z,14.76
2022-09-15T00:20:46.691Z,14.71
2022-09-15T00:23:14.814Z,14.68
2022-09-15T00:25:45.776Z,14.62
2022-09-15T00:28:13.978Z,14.60
2022-09-15T00:30:42.673Z,14.58
2022-09-15T00:33:09.772Z,14.55
2022-09-15T00:35:38.925Z,14.52
2022-09-15T00:38:05.872Z,14.50
2022-09-15T00:40:32.335Z,14.52
2022-09-15T00:42:58.846Z,14.51
2022-09-15T00:45:26.023Z,14.50
2022-09-15T00:47:52.716Z,14.48
2022-09-15T00:50:20.736Z,14.45
2022-09-15T00:52:56.860Z,14.41
2022-09-15T00:55:32.384Z,14.38
2022-09-15T00:58:10.679Z,14.35
2022-09-15T01:00:42.101Z,14.34
2022-09-15T01:03:08.687Z,14.35
2022-09-15T01:05:48.426Z,14.31
2022-09-15T01:08:21.626Z,14.30
2022-09-15T01:10:48.125Z,14.25
2022-09-15T01:13:15.077Z,14.22
2022-09-15T01:16:09.853Z,14.19
2022-09-15T01:19:01.370Z,14.17
2022-09-15T01:21:43.045Z,14.18
2022-09-15T01:24:34.368Z,14.11
2022-09-15T01:27:37.670Z,14.10
2022-09-15T01:30:09.498Z,14.16
2022-09-15T01:33:06.933Z,14.23
2022-09-15T01:35:33.491Z,14.25
2022-09-15T01:38:18.808Z,14.21
2022-09-15T01:40:52.961Z,14.19
2022-09-15T01:43:22.313Z,14.16
2022-09-15T01:45:51.247Z,14.16
2022-09-15T01:48:22.309Z,14.19
2022-09-15T01:50:56.103Z,14.18
2022-09-15T01:53:24.062Z,14.18
2022-09-15T01:55:56.389Z,14.17
2022-09-15T01:58:23.293Z,14.16
2022-09-15T02:00:57.265Z,14.14
2022-09-15T02:03:35.109Z,14.11
2022-09-15T02:06:08.811Z,14.11
2022-09-15T02:08:49.873Z,14.13
2022-09-15T02:11:19.627Z,14.11
2022-09-15T02:13:52.193Z,14.12
2022-09-15T02:16:22.458Z,14.12
2022-09-15T02:18:58.090Z,14.07
2022-09-15T02:21:37.273Z,14.06
2022-09-15T02:24:13.259Z,14.07
2022-09-15T02:26:42.111Z,14.06
2022-09-15T02:29:13.893Z,14.04
2022-09-15T02:31:42.569Z,14.06
2022-09-15T02:34:16.112Z,14.06
2022-09-15T02:36:43.041Z,14.06
2022-09-15T02:39:15.053Z,14.07
2022-09-15T02:41:41.941Z,14.07
2022-09-15T02:44:09.981Z,14.10
2022-09-15T02:46:36.826Z,14.13
2022-09-15T02:49:03.610Z,14.16
2022-09-15T02:51:31.027Z,14.16
2022-09-15T02:53:57.507Z,14.18
2022-09-15T02:56:23.948Z,14.18
2022-09-15T02:58:50.437Z,14.19
2022-09-15T03:01:17.483Z,14.20
2022-09-15T03:03:45.699Z,14.22
2022-09-15T03:06:21.019Z,14.23
2022-09-15T03:08:50.914Z,14.25
2022-09-15T03:11:19.346Z,14.25
2022-09-15T03:13:46.832Z,14.25
2022-09-15T03:16:15.450Z,14.26
2022-09-15T03:18:43.089Z,14.27
2022-09-15T03:21:13.341Z,14.28
2022-09-15T03:23:40.942Z,14.27
2022-09-15T03:26:09.080Z,14.27
2022-09-15T03:28:36.147Z,14.29
2022-09-15T03:31:02.873Z,14.29
2022-09-15T03:33:29.923Z,14.27
2022-09-15T03:35:57.020Z,14.27
2022-09-15T03:38:24.020Z,14.27
2022-09-15T03:41:04.501Z,14.26
2022-09-15T03:43:32.261Z,14.25
2022-09-15T03:45:59.831Z,14.26
2022-09-15T03:48:27.572Z,14.24
2022-09-15T03:50:54.133Z,14.24
2022-09-15T03:53:20.722Z,14.24
2022-09-15T03:55:48.890Z,14.24
2022-09-15T03:58:17.445Z,14.24
2022-09-15T04:00:45.765Z,14.24
2022-09-15T04:03:12.752Z,14.25
2022-09-15T04:05:39.860Z,14.24
2022-09-15T04:08:06.569Z,14.24
2022-09-15T04:10:33.378Z,14.23
2022-09-15T04:12:59.948Z,14.23
2022-09-15T04:15:26.444Z,14.26
2022-09-15T04:17:52.864Z,14.27
2022-09-15T04:20:19.348Z,14.27
2022-09-15T04:22:45.808Z,14.28
2022-09-15T04:25:12.298Z,14.31
2022-09-15T04:27:39.142Z,14.29
2022-09-15T04:30:08.612Z,14.31
2022-09-15T04:32:37.867Z,14.32
2022-09-15T04:35:04.872Z,14.31
2022-09-15T04:37:32.239Z,14.29
2022-09-15T04:39:59.115Z,14.30
2022-09-15T04:42:25.924Z,14.31
2022-09-15T04:44:52.372Z,14.31
2022-09-15T04:47:19.288Z,14.29
2022-09-15T04:49:46.542Z,14.31
2022-09-15T04:52:13.028Z,14.31
2022-09-15T04:54:39.536Z,14.32
2022-09-15T04:57:06.397Z,14.29
2022-09-15T04:59:32.929Z,14.27
2022-09-15T05:01:59.564Z,14.26
2022-09-15T05:04:26.202Z,14.27
2022-09-15T05:06:52.696Z,14.27
2022-09-15T05:09:19.224Z,14.28
2022-09-15T05:11:45.673Z,14.27
2022-09-15T05:14:12.282Z,14.30
2022-09-15T05:16:40.258Z,14.27
2022-09-15T05:19:06.810Z,14.29
2022-09-15T05:21:33.839Z,14.32
2022-09-15T05:24:00.472Z,14.32
2022-09-15T05:26:28.981Z,14.32
2022-09-15T05:28:57.174Z,14.31
2022-09-15T05:31:30.936Z,14.32
2022-09-15T05:34:00.127Z,14.32
2022-09-15T05:36:26.604Z,14.33
2022-09-15T05:38:53.997Z,14.33
2022-09-15T05:41:20.846Z,14.33
2022-09-15T05:43:48.442Z,14.32
2022-09-15T05:46:15.994Z,14.35
2022-09-15T05:48:42.718Z,14.36
2022-09-15T05:51:09.403Z,14.39
2022-09-15T05:53:36.899Z,14.41
2022-09-15T05:56:06.699Z,14.45
2022-09-15T05:58:33.540Z,14.46
2022-09-15T06:01:08.681Z,14.50
2022-09-15T06:03:35.921Z,14.55
2022-09-15T06:06:04.752Z,14.58
2022-09-15T06:08:33.711Z,14.61
2022-09-15T06:11:15.638Z,14.67
2022-09-15T06:13:43.093Z,14.73
2022-09-15T06:16:13.274Z,14.79
2022-09-15T06:18:41.035Z,14.83
2022-09-15T06:21:13.167Z,14.82
2022-09-15T06:23:40.485Z,14.81
2022-09-15T06:26:08.384Z,14.80
2022-09-15T06:28:35.424Z,14.78
2022-09-15T06:31:02.037Z,14.78
2022-09-15T06:33:28.493Z,14.82
2022-09-15T06:35:55.007Z,14.85
2022-09-15T06:38:21.569Z,14.88
2022-09-15T06:41:00.581Z,14.89
2022-09-15T06:43:27.134Z,14.92
2022-09-15T06:45:53.667Z,14.93
2022-09-15T06:48:24.786Z,14.95
2022-09-15T06:50:55.279Z,15.00
2022-09-15T06:53:22.256Z,15.09
2022-09-15T06:55:48.798Z,15.19
2022-09-15T06:58:15.698Z,15.30
2022-09-15T07:00:42.531Z,15.42
2022-09-15T07:03:09.190Z,15.63
2022-09-15T07:05:35.828Z,15.87
2022-09-15T07:08:02.779Z,16.06
2022-09-15T07:10:29.691Z,16.14
2022-09-15T07:12:56.484Z,16.13
2022-09-15T07:15:24.924Z,16.04
2022-09-15T07:17:51.371Z,15.96
2022-09-15T07:20:17.856Z,15.85
2022-09-15T07:22:44.282Z,15.79
2022-09-15T07:25:10.774Z,15.74
2022-09-15T07:27:37.187Z,15.72
2022-09-15T07:30:08.474Z,15.75
2022-09-15T07:32:34.987Z,15.78
2022-09-15T07:35:02.318Z,15.84
2022-09-15T07:37:28.880Z,15.91
2022-09-15T07:39:55.429Z,15.99
2022-09-15T07:42:21.956Z,16.07
2022-09-15T07:44:48.400Z,16.10
2022-09-15T07:47:14.817Z,16.19
2022-09-15T07:49:42.149Z,16.29
2022-09-15T07:52:08.774Z,16.36
2022-09-15T07:54:35.251Z,16.39
2022-09-15T07:57:01.951Z,16.46
2022-09-15T07:59:28.535Z,16.47
2022-09-15T08:01:55.225Z,16.53
2022-09-15T08:04:21.826Z,16.61
2022-09-15T08:06:48.274Z,16.63
2022-09-15T08:09:17.425Z,16.65
2022-09-15T08:11:44.386Z,16.78
2022-09-15T08:14:11.024Z,16.84
2022-09-15T08:16:38.602Z,16.85
2022-09-15T08:19:05.382Z,16.97
2022-09-15T08:21:31.848Z,17.07
2022-09-15T08:24:01.219Z,17.17
2022-09-15T08:26:29.394Z,17.05
2022-09-15T08:28:56.402Z,17.05
2022-09-15T08:31:24.441Z,17.11
2022-09-15T08:33:54.052Z,17.10
2022-09-15T08:36:21.239Z,17.22
2022-09-15T08:38:47.921Z,17.35
2022-09-15T08:41:21.404Z,17.40
2022-09-15T08:43:59.184Z,17.39
2022-09-15T08:46:34.919Z,17.39
2022-09-15T08:49:10.491Z,17.44
2022-09-15T08:51:44.663Z,17.44
2022-09-15T08:54:18.757Z,17.37
2022-09-15T08:56:45.852Z,17.45
2022-09-15T08:59:15.409Z,17.47
2022-09-15T09:01:48.027Z,17.46
2022-09-15T09:04:32.797Z,17.36
2022-09-15T09:07:04.727Z,17.35
2022-09-15T09:09:52.858Z,17.38
2022-09-15T09:12:29.323Z,17.35
2022-09-15T09:15:32.917Z,17.33
2022-09-15T09:18:21.200Z,17.40
2022-09-15T09:20:56.681Z,17.38
2022-09-15T09:23:28.319Z,17.43
2022-09-15T09:25:57.325Z,17.42
2022-09-15T09:28:36.240Z,17.36
2022-09-15T09:31:07.987Z,17.29
2022-09-15T09:33:47.365Z,17.29
2022-09-15T09:36:14.755Z,17.35
2022-09-15T09:38:44.471Z,17.34
2022-09-15T09:41:19.629Z,17.22
2022-09-15T09:43:49.010Z,17.16
2022-09-15T09:46:18.142Z,17.15
2022-09-15T09:49:03.580Z,17.16
2022-09-15T09:51:39.878Z,17.20
2022-09-15T09:54:16.981Z,17.29
2022-09-15T09:56:45.850Z,17.38
2022-09-15T09:59:42.780Z,17.47
2022-09-15T10:02:12.198Z,17.54
2022-09-15T10:04:40.940Z,17.72
2022-09-15T10:07:08.810Z,17.79
2022-09-15T10:09:37.050Z,17.89
2022-09-15T10:12:05.853Z,17.95
2022-09-15T10:14:36.670Z,18.12
2022-09-15T10:17:05.842Z,18.29
2022-09-15T10:19:36.624Z,18.36
2022-09-15T10:22:04.690Z,18.47
2022-09-15T10:24:35.478Z,18.32
2022-09-15T10:27:28.607Z,18.07
2022-09-15T10:29:56.068Z,18.03
2022-09-15T10:32:25.441Z,17.99
2022-09-15T10:35:04.953Z,17.99
2022-09-15T10:37:55.733Z,18.07
2022-09-15T10:40:39.903Z,18.29
2022-09-15T10:43:40.135Z,18.66
2022-09-15T10:46:19.180Z,18.89
2022-09-15T10:49:16.130Z,19.11
2022-09-15T10:51:58.833Z,19.30
2022-09-15T10:54:54.800Z,19.42
2022-09-15T10:57:33.465Z,19.54
2022-09-15T11:00:09.874Z,19.48
2022-09-15T11:02:58.396Z,19.44
2022-09-15T11:05:34.310Z,19.35
2022-09-15T11:08:24.414Z,19.45
2022-09-15T11:11:17.804Z,19.48
2022-09-15T11:14:18.197Z,19.57
2022-09-15T11:16:49.013Z,19.60
2022-09-15T11:20:09.301Z,19.46
2022-09-15T11:22:46.110Z,19.29
2022-09-15T11:25:23.207Z,19.27
2022-09-15T11:27:57.663Z,19.51
2022-09-15T11:30:29.009Z,19.56
2022-09-15T11:33:19.038Z,19.66
2022-09-15T11:35:53.861Z,19.99
2022-09-15T11:38:53.061Z,20.05
2022-09-15T11:41:34.469Z,19.85
2022-09-15T11:44:03.576Z,19.51
2022-09-15T11:46:51.731Z,19.15
2022-09-15T11:49:23.149Z,18.92
2022-09-15T11:51:56.389Z,18.78
2022-09-15T11:54:37.277Z,18.67
2022-09-15T11:57:04.185Z,18.66
2022-09-15T11:59:42.046Z,18.62
2022-09-15T12:02:34.905Z,18.83
2022-09-15T12:05:08.403Z,19.34
2022-09-15T12:07:47.489Z,19.64
2022-09-15T12:10:19.024Z,19.81
2022-09-15T12:12:46.979Z,20.05
2022-09-15T12:15:27.384Z,20.24
2022-09-15T12:18:06.647Z,20.32
2022-09-15T12:21:03.089Z,20.30
2022-09-15T12:23:34.707Z,20.17
2022-09-15T12:26:20.211Z,20.04
2022-09-15T12:28:46.568Z,19.87
2022-09-15T12:31:25.297Z,19.78
2022-09-15T12:33:51.647Z,19.67
2022-09-15T12:36:37.300Z,19.51
2022-09-15T12:39:20.822Z,19.42
2022-09-15T12:42:06.179Z,19.39
2022-09-15T12:44:37.782Z,19.33
2022-09-15T12:47:07.530Z,19.11
2022-09-15T12:49:43.687Z,18.93
2022-09-15T12:52:11.898Z,18.98
2022-09-15T12:54:41.988Z,19.02
2022-09-15T12:57:24.175Z,18.89
2022-09-15T13:00:16.872Z,18.65
2022-09-15T13:02:51.453Z,18.48
2022-09-15T13:05:42.922Z,18.30
2022-09-15T13:08:12.606Z,18.14
2022-09-15T13:10:43.179Z,18.01
2022-09-15T13:13:20.298Z,18.04
2022-09-15T13:15:50.571Z,18.15
2022-09-15T13:18:19.593Z,18.37
2022-09-15T13:20:54.716Z,18.54
2022-09-15T13:23:25.643Z,18.74
2022-09-15T13:25:56.450Z,18.95
2022-09-15T13:28:24.916Z,19.14
2022-09-15T13:31:18.031Z,19.12
2022-09-15T13:40:14.472Z,19.11
2022-09-15T13:43:04.945Z,19.09
2022-09-15T13:46:04.093Z,19.17
2022-09-15T13:49:01.494Z,19.26
2022-09-15T13:51:30.728Z,19.25
2022-09-15T13:54:05.974Z,19.10
2022-09-15T13:56:39.928Z,18.82
2022-09-15T13:59:14.135Z,18.61
2022-09-15T14:01:42.744Z,18.53
2022-09-15T14:04:16.776Z,18.47
2022-09-15T14:06:48.055Z,18.45
2022-09-15T14:09:22.867Z,18.39
2022-09-15T14:11:55.423Z,18.35
2022-09-15T14:14:28.121Z,18.15
2022-09-15T14:16:56.445Z,17.98
2022-09-15T14:19:36.329Z,17.83
2022-09-15T14:22:17.797Z,17.79
2022-09-15T14:24:44.564Z,17.82
2022-09-15T14:27:12.665Z,17.85
2022-09-15T14:29:40.930Z,17.91
2022-09-15T14:32:13.558Z,18.04
2022-09-15T14:34:42.048Z,18.20
2022-09-15T14:37:19.574Z,18.32
2022-09-15T14:39:56.947Z,18.52
2022-09-15T14:42:30.723Z,18.67
2022-09-15T14:48:02.764Z,19.12
2022-09-15T14:50:33.294Z,19.39
2022-09-15T14:53:23.560Z,19.69
2022-09-15T14:56:01.309Z,19.57
2022-09-15T14:59:08.837Z,19.61
2022-09-15T15:01:37.705Z,19.53
2022-09-15T15:04:34.583Z,19.57
2022-09-15T15:07:07.731Z,19.61
2022-09-15T15:09:40.312Z,19.45
2022-09-15T15:12:17.374Z,19.21
2022-09-15T15:14:44.206Z,19.03
2022-09-15T15:17:26.876Z,19.05
2022-09-15T15:20:05.750Z,19.02
2022-09-15T15:22:32.530Z,18.82
2022-09-15T15:24:59.933Z,18.77
2022-09-15T15:27:32.466Z,18.70
2022-09-15T15:30:37.047Z,18.62
2022-09-15T15:33:19.874Z,18.61
2022-09-15T15:35:47.129Z,18.63
2022-09-15T15:38:19.444Z,18.52
2022-09-15T15:40:46.917Z,18.44
2022-09-15T15:43:19.577Z,18.31
2022-09-15T15:46:00.873Z,18.13
2022-09-15T15:48:30.087Z,18.06
2022-09-15T15:50:59.341Z,18.03
2022-09-15T15:53:26.867Z,17.97
2022-09-15T15:55:55.110Z,17.92
2022-09-15T15:58:22.560Z,17.83
2022-09-15T16:00:53.800Z,17.86
2022-09-15T16:03:21.136Z,17.91
2022-09-15T16:05:50.777Z,17.88
2022-09-15T16:08:31.551Z,17.80
2022-09-15T16:11:00.577Z,17.81
2022-09-15T16:13:27.525Z,17.71
2022-09-15T16:15:56.697Z,17.55
2022-09-15T16:18:23.551Z,17.49
2022-09-15T16:20:50.194Z,17.50
2022-09-15T16:23:19.496Z,17.41
2022-09-15T16:25:54.833Z,17.35
2022-09-15T16:28:21.671Z,17.36
2022-09-15T16:30:48.191Z,17.39
2022-09-15T16:33:16.820Z,17.27
2022-09-15T16:35:52.919Z,17.23
2022-09-15T16:38:20.452Z,17.18
2022-09-15T16:40:47.731Z,17.11
2022-09-15T16:43:16.884Z,17.05
2022-09-15T16:45:44.000Z,17.05
2022-09-15T16:48:11.048Z,17.04
2022-09-15T16:50:40.149Z,16.96
2022-09-15T16:53:20.635Z,16.88
2022-09-15T16:55:52.031Z,16.89
2022-09-15T16:58:20.097Z,16.83
2022-09-15T17:00:49.190Z,16.72
2022-09-15T17:03:18.751Z,16.69
2022-09-15T17:05:48.828Z,16.57
2022-09-15T17:08:16.169Z,16.60
2022-09-15T17:10:42.894Z,16.57
2022-09-15T17:13:15.076Z,16.50
2022-09-15T17:15:42.215Z,16.48
2022-09-15T17:18:10.116Z,16.51
2022-09-15T17:20:39.340Z,16.53
2022-09-15T17:23:18.277Z,16.52
2022-09-15T17:25:51.414Z,16.45
2022-09-15T17:28:22.730Z,16.40
2022-09-15T17:30:51.519Z,16.36
2022-09-15T17:33:19.587Z,16.36
2022-09-15T17:35:46.384Z,16.32
2022-09-15T17:38:13.433Z,16.28
2022-09-15T17:40:39.991Z,16.21
2022-09-15T17:43:13.978Z,16.18
2022-09-15T17:45:40.623Z,16.10
2022-09-15T17:48:07.224Z,16.12
2022-09-15T17:50:34.826Z,16.09
2022-09-15T17:53:01.315Z,16.05
2022-09-15T17:55:33.077Z,16.01
2022-09-15T17:58:01.303Z,15.95
2022-09-15T18:00:39.635Z,15.85
2022-09-15T18:03:15.807Z,15.76
2022-09-15T18:05:42.346Z,15.70
2022-09-15T18:08:09.627Z,15.67
2022-09-15T18:10:36.660Z,15.64
2022-09-15T18:13:05.404Z,15.63
2022-09-15T18:15:34.034Z,15.67
2022-09-15T18:18:04.055Z,15.68
2022-09-15T18:20:32.929Z,15.68
2022-09-15T18:23:00.385Z,15.71
2022-09-15T18:25:30.932Z,15.72
2022-09-15T18:27:59.046Z,15.66
2022-09-15T18:30:28.894Z,15.43
2022-09-15T18:32:55.872Z,15.25
2022-09-15T18:35:23.381Z,15.11
2022-09-15T18:37:55.513Z,15.02
2022-09-15T18:40:21.988Z,14.98
2022-09-15T18:42:49.097Z,14.92
2022-09-15T18:45:17.294Z,14.91
2022-09-15T18:47:47.149Z,14.92
2022-09-15T18:50:14.191Z,14.92
2022-09-15T18:52:41.807Z,14.86
2022-09-15T18:55:11.394Z,14.85
2022-09-15T18:57:39.399Z,14.75
2022-09-15T19:00:12.140Z,14.70
2022-09-15T19:02:39.062Z,14.67
2022-09-15T19:05:06.410Z,14.65
2022-09-15T19:07:32.938Z,14.65
2022-09-15T19:10:00.650Z,14.59
2022-09-15T19:12:27.468Z,14.65
2022-09-15T19:14:54.548Z,14.69
2022-09-15T19:17:21.350Z,14.63
2022-09-15T19:19:47.904Z,14.60
2022-09-15T19:22:14.387Z,14.59
2022-09-15T19:24:40.874Z,14.62
2022-09-15T19:27:08.225Z,14.59
2022-09-15T19:29:36.447Z,14.59
2022-09-15T19:32:09.774Z,14.54
2022-09-15T19:34:38.481Z,14.56
2022-09-15T19:37:11.346Z,14.47
2022-09-15T19:39:40.688Z,14.45
2022-09-15T19:42:09.253Z,14.47
2022-09-15T19:44:35.775Z,14.49
2022-09-15T19:47:02.317Z,14.50
2022-09-15T19:49:28.786Z,14.46
2022-09-15T19:51:55.581Z,14.42
2022-09-15T19:54:23.952Z,14.39
2022-09-15T19:56:51.105Z,14.41
2022-09-15T19:59:18.548Z,14.38
2022-09-15T20:01:45.141Z,14.37
2022-09-15T20:04:12.400Z,14.36
2022-09-15T20:06:39.432Z,14.36
2022-09-15T20:09:07.119Z,14.32
2022-09-15T20:11:34.874Z,14.12
2022-09-15T20:14:01.638Z,13.99
2022-09-15T20:16:29.210Z,13.97
2022-09-15T20:18:56.001Z,13.95
2022-09-15T20:21:45.984Z,13.94
2022-09-15T20:24:12.364Z,13.91
2022-09-15T20:26:38.900Z,13.89
2022-09-15T20:29:05.359Z,13.91
2022-09-15T20:31:34.684Z,13.88
2022-09-15T20:34:02.353Z,13.84
2022-09-15T20:36:33.374Z,13.86
2022-09-15T20:39:01.466Z,13.85
2022-09-15T20:41:28.523Z,13.85
2022-09-15T20:43:55.617Z,13.90
2022-09-15T20:46:23.472Z,13.93
2022-09-15T20:48:51.248Z,13.88
2022-09-15T20:51:23.414Z,13.89
2022-09-15T20:53:54.921Z,13.87
2022-09-15T20:56:25.691Z,13.89
2022-09-15T20:58:53.859Z,13.86
2022-09-15T21:01:43.456Z,13.85
2022-09-15T21:04:10.854Z,13.82
2022-09-15T21:06:38.665Z,13.78
2022-09-15T21:09:06.250Z,13.69
2022-09-15T21:11:33.204Z,13.62
2022-09-15T21:13:59.886Z,13.54
2022-09-15T21:16:28.271Z,13.46
2022-09-15T21:18:57.083Z,13.42
2022-09-15T21:21:25.868Z,13.39
2022-09-15T21:23:54.708Z,13.34
2022-09-15T21:26:26.292Z,13.35
2022-09-15T21:28:54.181Z,13.35
2022-09-15T21:31:23.280Z,13.35
2022-09-15T21:33:51.212Z,13.29
2022-09-15T21:36:29.638Z,13.26
2022-09-15T21:38:58.200Z,13.24
2022-09-15T21:41:27.332Z,13.24
2022-09-15T21:43:55.273Z,13.20
2022-09-15T21:46:26.581Z,13.21
2022-09-15T21:48:55.175Z,13.19
2022-09-15T21:51:24.949Z,13.13
2022-09-15T21:53:56.800Z,13.05
2022-09-15T21:56:24.146Z,13.02
2022-09-15T21:58:50.766Z,12.98
2022-09-15T22:01:20.183Z,12.96
2022-09-15T22:03:55.577Z,12.88
2022-09-15T22:06:27.682Z,12.89
2022-09-15T22:08:55.368Z,12.89
2022-09-15T22:11:22.644Z,12.90
2022-09-15T22:13:49.325Z,12.89
2022-09-15T22:16:20.352Z,12.85
2022-09-15T22:18:47.560Z,12.82
2022-09-15T22:21:20.578Z,12.82
2022-09-15T22:23:48.481Z,12.79
2022-09-15T22:26:18.224Z,12.79
2022-09-15T22:28:45.367Z,12.74
2022-09-15T22:31:13.320Z,12.74
2022-09-15T22:33:43.155Z,12.72
2022-09-15T22:36:15.728Z,12.69
2022-09-15T22:38:42.825Z,12.68
2022-09-15T22:41:14.139Z,12.68
2022-09-15T22:43:42.977Z,12.69
2022-09-15T22:46:09.796Z,12.69
2022-09-15T22:48:40.984Z,12.64
2022-09-15T22:51:09.395Z,12.61
2022-09-15T22:53:35.975Z,12.60
2022-09-15T22:56:09.132Z,12.56
2022-09-15T22:58:36.858Z,12.53
2022-09-15T23:01:12.146Z,12.49
2022-09-15T23:03:39.528Z,12.47
2022-09-15T23:06:07.779Z,12.43
2022-09-15T23:08:35.440Z,12.39
2022-09-15T23:11:06.439Z,12.38
2022-09-15T23:13:33.694Z,12.33
2022-09-15T23:16:00.312Z,12.32
2022-09-15T23:18:29.702Z,12.31
2022-09-15T23:21:04.237Z,12.35
2022-09-15T23:23:30.985Z,12.39
2022-09-15T23:25:57.398Z,12.43
2022-09-15T23:28:23.847Z,12.49
2022-09-15T23:30:57.857Z,12.48
2022-09-15T23:33:25.985Z,12.50
2022-09-15T23:35:52.800Z,12.53
2022-09-15T23:38:20.163Z,12.54
2022-09-15T23:40:48.307Z,12.53
2022-09-15T23:43:14.764Z,12.53
2022-09-15T23:45:45.116Z,12.52
2022-09-15T23:48:13.408Z,12.53
2022-09-15T23:50:41.424Z,12.55
2022-09-15T23:53:08.034Z,12.56
2022-09-15T23:55:34.809Z,12.60
2022-09-15T23:58:01.263Z,12.60
